Lakeway's Hourly Summary for Monday, May 14, 2018
Hour Temp
(f)
RH
(%)
Solar Rad.
(MJ/m2)
Rainfall
(in)
Wind
(mph)
5/14/2018 12:00 AM 77 81 0 0 3.64
5/14/2018 1:00 AM 75 84 0 0 3.02
5/14/2018 2:00 AM 74 86 0 0 2.71
5/14/2018 3:00 AM 73 87 0 0 2.47
5/14/2018 4:00 AM 73 87 0 0 1.43
5/14/2018 5:00 AM 73 87 0 0 1.81
5/14/2018 6:00 AM 73 89 0.01 0 1.81
5/14/2018 7:00 AM 73 91 0.17 0 1.3
5/14/2018 8:00 AM 74 91 0.44 0 1.62
5/14/2018 9:00 AM 76 86 0.69 0 2.38
5/14/2018 10:00 AM 78 78 1.23 0 2.38
5/14/2018 11:00 AM 81 67 1.95 0 3.17
5/14/2018 12:00 PM 84 60 2.54 0 3.17
5/14/2018 1:00 PM 85 55 2.54 0 2.95
5/14/2018 2:00 PM 86 54 2.78 0 2.9
5/14/2018 3:00 PM 87 49 2.78 0 2.9
5/14/2018 4:00 PM 88 48 2.35 0 2.82
5/14/2018 5:00 PM 88 46 2.35 0 2.99
5/14/2018 6:00 PM 87 50 1.28 0 2.99
5/14/2018 7:00 PM 86 50 0.94 0 2.57
5/14/2018 8:00 PM 84 53 0.27 0 2.36
5/14/2018 9:00 PM 81 59 0.01 0 0.83
5/14/2018 10:00 PM 79 65 0 0 2.41
5/14/2018 11:00 PM 79 67 0 0 2.41
Data Summary 79 69 22.33 0.00 2.46